createdAt,value
2019-05-29T00:00:13.420Z,89.40
2019-05-29T00:02:42.143Z,90.20
2019-05-29T00:05:10.818Z,87.00
2019-05-29T00:07:39.367Z,87.70
2019-05-29T00:10:08.951Z,88.60
2019-05-29T00:12:38.366Z,89.30
2019-05-29T00:15:08.382Z,89.20
2019-05-29T00:17:37.171Z,89.80
2019-05-29T00:20:08.324Z,88.70
2019-05-29T00:22:36.930Z,87.40
2019-05-29T00:25:06.815Z,87.00
2019-05-29T00:27:35.446Z,87.90
2019-05-29T00:30:08.797Z,88.70
2019-05-29T00:32:37.744Z,89.40
2019-05-29T00:35:08.308Z,89.80
2019-05-29T00:37:37.094Z,88.40
2019-05-29T00:40:08.734Z,88.70
2019-05-29T00:42:37.844Z,88.80
2019-05-29T00:45:09.656Z,89.60
2019-05-29T00:47:38.582Z,88.70
2019-05-29T00:50:08.048Z,89.10
2019-05-29T00:52:36.993Z,88.00
2019-05-29T00:55:06.592Z,87.30
2019-05-29T00:57:35.129Z,88.40
2019-05-29T01:00:09.056Z,88.60
2019-05-29T01:02:37.976Z,88.60
2019-05-29T01:05:07.601Z,89.60
2019-05-29T01:07:36.155Z,88.90
2019-05-29T01:10:07.458Z,88.90
2019-05-29T01:12:36.078Z,87.10
2019-05-29T01:15:07.107Z,87.80
2019-05-29T01:17:35.702Z,86.60
2019-05-29T01:20:06.290Z,86.50
2019-05-29T01:22:34.838Z,85.80
2019-05-29T01:25:03.763Z,86.30
2019-05-29T01:27:32.372Z,86.20
2019-05-29T01:30:00.898Z,85.70
2019-05-29T01:32:29.471Z,86.50
2019-05-29T01:34:58.354Z,85.60
2019-05-29T01:37:26.921Z,85.40
2019-05-29T01:39:55.507Z,85.70
2019-05-29T01:42:24.114Z,86.70
2019-05-29T01:45:06.594Z,86.20
2019-05-29T01:47:23.656Z,87.10
2019-05-29T01:49:52.463Z,86.90
2019-05-29T01:52:21.878Z,86.30
2019-05-29T01:54:50.578Z,86.20
2019-05-29T01:57:19.685Z,87.20
2019-05-29T01:59:48.598Z,85.10
2019-05-29T02:02:17.800Z,85.60
2019-05-29T02:04:46.914Z,85.10
2019-05-29T02:07:15.890Z,86.20
2019-05-29T02:09:44.587Z,87.20
2019-05-29T02:12:13.161Z,86.40
2019-05-29T02:14:41.779Z,85.60
2019-05-29T02:17:10.383Z,87.40
2019-05-29T02:19:39.019Z,87.10
2019-05-29T02:22:07.547Z,86.80
2019-05-29T02:24:36.098Z,86.50
2019-05-29T02:27:05.047Z,87.10
2019-05-29T02:29:34.551Z,87.00
2019-05-29T02:32:03.467Z,87.50
2019-05-29T02:34:32.335Z,87.40
2019-05-29T02:37:00.948Z,87.20
2019-05-29T02:39:29.953Z,87.20
2019-05-29T02:41:58.595Z,86.70
2019-05-29T02:44:27.696Z,87.00
2019-05-29T02:46:56.824Z,86.40
2019-05-29T02:49:25.753Z,87.00
2019-05-29T02:51:54.698Z,87.10
2019-05-29T02:54:24.711Z,87.00
2019-05-29T02:56:53.773Z,86.80
2019-05-29T02:59:23.462Z,87.70
2019-05-29T03:01:52.578Z,88.10
2019-05-29T03:04:24.076Z,87.50
2019-05-29T03:06:53.486Z,87.80
2019-05-29T03:09:22.729Z,87.00
2019-05-29T03:11:52.016Z,88.10
2019-05-29T03:14:20.563Z,87.50
2019-05-29T03:16:49.406Z,87.60
2019-05-29T03:19:18.292Z,86.90
2019-05-29T03:21:46.827Z,87.40
2019-05-29T03:24:15.396Z,87.10
2019-05-29T03:26:43.960Z,86.90
2019-05-29T03:29:12.560Z,87.40
2019-05-29T03:31:47.344Z,88.40
2019-05-29T03:34:11.735Z,87.80
2019-05-29T03:36:47.159Z,87.30
2019-05-29T03:39:10.838Z,87.80
2019-05-29T03:41:39.324Z,88.10
2019-05-29T03:44:10.453Z,88.30
2019-05-29T03:46:44.675Z,88.80
2019-05-29T03:49:08.287Z,89.20
2019-05-29T03:51:38.839Z,89.80
2019-05-29T03:54:07.358Z,90.40
2019-05-29T03:56:35.948Z,90.50
2019-05-29T03:59:04.662Z,91.00
2019-05-29T04:01:35.328Z,90.50
2019-05-29T04:04:03.694Z,91.30
2019-05-29T04:06:35.609Z,91.30
2019-05-29T04:09:06.352Z,91.50
2019-05-29T04:11:42.336Z,91.90
2019-05-29T04:14:10.951Z,91.00
2019-05-29T04:16:58.475Z,90.70
2019-05-29T04:19:12.879Z,90.90
2019-05-29T04:21:43.654Z,90.40
2019-05-29T04:24:13.826Z,88.30
2019-05-29T04:26:44.004Z,88.50
2019-05-29T04:29:13.650Z,87.60
2019-05-29T04:31:42.262Z,85.90
2019-05-29T04:34:10.977Z,87.10
2019-05-29T04:36:39.467Z,87.30
2019-05-29T04:39:07.995Z,87.00
2019-05-29T04:41:37.090Z,86.00
2019-05-29T04:44:06.413Z,85.00
2019-05-29T04:46:36.448Z,86.60
2019-05-29T04:49:05.183Z,86.80
2019-05-29T04:51:41.477Z,85.00
2019-05-29T04:54:10.089Z,85.00
2019-05-29T04:56:39.181Z,85.80
2019-05-29T04:59:08.193Z,86.50
2019-05-29T05:01:39.307Z,85.30
2019-05-29T05:04:07.919Z,84.70
2019-05-29T05:06:37.403Z,85.40
2019-05-29T05:09:27.006Z,88.10
2019-05-29T05:11:56.243Z,86.00
2019-05-29T05:14:25.022Z,84.60
2019-05-29T05:16:57.355Z,84.30
2019-05-29T05:19:25.966Z,79.00
2019-05-29T05:21:54.827Z,80.10
2019-05-29T05:24:23.396Z,79.20
2019-05-29T05:26:51.936Z,81.50
2019-05-29T05:29:20.580Z,79.30
2019-05-29T05:31:49.463Z,74.50
2019-05-29T05:34:17.946Z,75.90
2019-05-29T05:36:46.510Z,75.40
2019-05-29T05:39:15.314Z,74.90
2019-05-29T05:41:43.872Z,73.20
2019-05-29T05:44:12.419Z,72.90
2019-05-29T05:46:41.283Z,71.70
2019-05-29T05:49:10.098Z,72.70
2019-05-29T05:51:42.787Z,72.50
2019-05-29T05:54:09.994Z,70.20
2019-05-29T05:56:39.650Z,67.80
2019-05-29T05:59:08.828Z,66.70
2019-05-29T06:01:37.977Z,64.30
2019-05-29T06:04:06.648Z,66.00
2019-05-29T06:06:36.175Z,67.20
2019-05-29T06:09:07.448Z,63.30
2019-05-29T06:11:36.181Z,60.50
2019-05-29T06:14:04.803Z,57.30
2019-05-29T06:16:34.445Z,57.80
2019-05-29T06:19:03.079Z,59.30
2019-05-29T06:21:32.559Z,57.60
2019-05-29T06:24:04.307Z,59.90
2019-05-29T06:26:34.865Z,56.50
2019-05-29T06:29:04.611Z,56.80
2019-05-29T06:31:33.356Z,57.00
2019-05-29T06:34:01.858Z,58.80
2019-05-29T06:36:31.740Z,56.70
2019-05-29T06:39:00.354Z,56.10
2019-05-29T06:41:33.612Z,52.90
2019-05-29T06:44:02.382Z,46.40
2019-05-29T06:46:31.107Z,52.40
2019-05-29T06:49:01.024Z,49.50
2019-05-29T06:51:30.125Z,46.90
2019-05-29T06:53:58.696Z,48.80
2019-05-29T06:56:27.235Z,49.30
2019-05-29T06:58:55.799Z,41.40
2019-05-29T07:01:24.421Z,42.50
2019-05-29T07:04:10.508Z,39.10
2019-05-29T07:06:23.918Z,39.70
2019-05-29T07:08:53.343Z,39.30
2019-05-29T07:11:22.470Z,39.80
2019-05-29T07:13:51.117Z,40.70
2019-05-29T07:16:19.824Z,38.50
2019-05-29T07:19:23.251Z,38.60
2019-05-29T07:21:18.930Z,40.10
2019-05-29T07:23:48.804Z,36.50
2019-05-29T07:26:19.532Z,37.60
2019-05-29T07:29:06.894Z,35.10
2019-05-29T07:31:23.156Z,39.10
2019-05-29T07:33:52.192Z,40.00
2019-05-29T07:36:22.212Z,36.60
2019-05-29T07:39:02.514Z,35.70
2019-05-29T07:41:21.047Z,36.10
2019-05-29T07:43:49.925Z,33.90
2019-05-29T07:46:18.910Z,33.90
2019-05-29T07:48:49.991Z,32.90
2019-05-29T07:51:18.174Z,33.10
2019-05-29T07:53:48.831Z,34.90
2019-05-29T07:56:23.692Z,31.90
2019-05-29T07:59:01.675Z,33.60
2019-05-29T08:01:22.765Z,32.10
2019-05-29T08:03:51.403Z,32.00
2019-05-29T08:06:20.096Z,30.50
2019-05-29T08:08:49.987Z,31.60
2019-05-29T08:11:19.853Z,31.20
2019-05-29T08:13:48.419Z,32.50
2019-05-29T08:16:17.367Z,34.20
2019-05-29T08:18:54.767Z,36.00
2019-05-29T08:21:22.584Z,36.30
2019-05-29T08:23:51.219Z,35.20
2019-05-29T08:26:19.771Z,31.50
2019-05-29T08:28:48.886Z,33.00
2019-05-29T08:31:17.883Z,31.30
2019-05-29T08:33:51.390Z,32.50
2019-05-29T08:36:20.246Z,34.40
2019-05-29T08:38:49.379Z,32.70
2019-05-29T08:41:18.156Z,34.40
2019-05-29T08:43:47.001Z,30.30
2019-05-29T08:46:15.645Z,34.20
2019-05-29T08:48:45.774Z,29.50
2019-05-29T08:51:25.012Z,30.60
2019-05-29T08:53:54.809Z,34.10
2019-05-29T08:56:24.072Z,31.10
2019-05-29T08:58:53.273Z,32.00
2019-05-29T09:01:21.891Z,30.90
2019-05-29T09:03:51.197Z,33.00
2019-05-29T09:06:20.134Z,31.40
2019-05-29T09:08:50.461Z,31.70
2019-05-29T09:11:19.174Z,29.60
2019-05-29T09:13:48.395Z,35.80
2019-05-29T09:16:17.017Z,32.00
2019-05-29T09:18:45.597Z,32.40
2019-05-29T09:21:15.696Z,32.90
2019-05-29T09:23:44.547Z,35.00
2019-05-29T09:26:22.431Z,30.90
2019-05-29T09:28:49.208Z,31.80
2019-05-29T09:31:18.647Z,31.90
2019-05-29T09:33:48.167Z,31.30
2019-05-29T09:36:17.506Z,29.10
2019-05-29T09:38:47.623Z,29.10
2019-05-29T09:41:17.433Z,28.00
2019-05-29T09:43:58.122Z,27.60
2019-05-29T09:46:18.826Z,30.20
2019-05-29T09:48:50.086Z,29.50
2019-05-29T09:51:21.284Z,37.30
2019-05-29T09:53:50.347Z,30.00
2019-05-29T09:56:20.822Z,30.70
2019-05-29T10:01:39.035Z,28.80
2019-05-29T10:04:07.975Z,32.60
2019-05-29T10:06:36.886Z,36.40
2019-05-29T10:09:11.281Z,33.10
2019-05-29T10:11:46.489Z,34.40
2019-05-29T10:14:15.406Z,36.60
2019-05-29T10:16:43.958Z,39.30
2019-05-29T10:19:12.571Z,34.40
2019-05-29T10:21:41.623Z,34.30
2019-05-29T10:24:10.490Z,34.30
2019-05-29T10:26:39.116Z,33.70
2019-05-29T10:29:09.648Z,36.70
2019-05-29T10:31:37.882Z,34.30
2019-05-29T10:34:06.804Z,35.70
2019-05-29T10:36:35.375Z,38.30
2019-05-29T10:39:05.924Z,37.20
2019-05-29T10:41:34.663Z,33.10
2019-05-29T10:44:03.696Z,34.60
2019-05-29T10:46:32.307Z,38.50
2019-05-29T10:49:04.448Z,33.60
2019-05-29T10:51:31.170Z,32.80
2019-05-29T10:53:59.776Z,33.80
2019-05-29T10:56:28.582Z,36.70
2019-05-29T10:58:59.767Z,34.10
2019-05-29T11:01:28.015Z,34.50
2019-05-29T11:03:56.875Z,30.70
2019-05-29T11:06:25.554Z,34.30
2019-05-29T11:08:54.448Z,33.50
2019-05-29T11:11:23.210Z,35.50
2019-05-29T11:13:52.847Z,32.40
2019-05-29T11:16:21.568Z,34.80
2019-05-29T11:18:51.235Z,35.40
2019-05-29T11:21:20.052Z,35.30
2019-05-29T11:23:49.866Z,35.50
2019-05-29T11:26:18.926Z,39.10
2019-05-29T11:28:48.363Z,38.30
2019-05-29T11:31:17.086Z,35.30
2019-05-29T11:33:45.622Z,33.50
2019-05-29T11:36:16.120Z,33.80
2019-05-29T11:38:46.129Z,35.60
2019-05-29T11:41:25.577Z,31.10
2019-05-29T11:43:46.590Z,30.50
2019-05-29T11:46:40.579Z,32.70
2019-05-29T11:49:09.863Z,34.40
2019-05-29T11:51:39.041Z,32.40
2019-05-29T11:54:09.466Z,33.90
2019-05-29T11:56:39.144Z,37.20
2019-05-29T11:59:08.678Z,32.40
2019-05-29T12:01:49.631Z,39.00
2019-05-29T12:04:25.744Z,39.20
2019-05-29T12:06:44.925Z,39.70
2019-05-29T12:09:29.041Z,33.10
2019-05-29T12:11:44.385Z,34.80
2019-05-29T12:14:58.014Z,34.30
2019-05-29T12:17:09.327Z,37.60
2019-05-29T12:19:38.674Z,34.60
2019-05-29T12:22:12.006Z,30.60
2019-05-29T12:24:41.555Z,30.20
2019-05-29T12:27:14.322Z,31.70
2019-05-29T12:29:44.547Z,26.40
2019-05-29T12:32:13.718Z,32.10
2019-05-29T12:34:53.137Z,30.30
2019-05-29T12:37:21.051Z,35.10
2019-05-29T12:39:51.013Z,32.40
2019-05-29T12:42:20.570Z,34.10
2019-05-29T12:47:58.038Z,30.50
2019-05-29T12:50:27.233Z,30.80
2019-05-29T12:52:57.678Z,33.10
2019-05-29T12:55:27.922Z,31.80
2019-05-29T12:57:57.896Z,33.50
2019-05-29T13:00:27.127Z,33.80
2019-05-29T13:02:56.398Z,34.50
2019-05-29T13:05:25.943Z,35.10
2019-05-29T13:07:56.787Z,32.00
2019-05-29T13:10:31.224Z,36.50
2019-05-29T13:13:06.987Z,33.40
2019-05-29T13:15:31.473Z,33.40
2019-05-29T13:18:05.733Z,31.40
2019-05-29T13:20:31.480Z,28.80
2019-05-29T13:23:09.131Z,29.00
2019-05-29T13:25:38.172Z,31.20
2019-05-29T13:28:07.168Z,34.00
2019-05-29T13:30:36.382Z,33.50
2019-05-29T13:33:08.450Z,30.10
2019-05-29T13:35:36.783Z,30.40
2019-05-29T13:38:09.810Z,33.60
2019-05-29T13:40:38.850Z,30.20
2019-05-29T13:43:15.106Z,33.10
2019-05-29T13:45:39.253Z,36.40
2019-05-29T13:48:10.970Z,36.00
2019-05-29T13:51:03.640Z,34.80
2019-05-29T13:53:32.964Z,34.50
2019-05-29T13:56:02.275Z,35.60
2019-05-29T13:58:31.497Z,31.20
2019-05-29T14:01:00.857Z,30.50
2019-05-29T14:03:32.017Z,31.50
2019-05-29T14:06:09.663Z,30.50
2019-05-29T14:08:39.694Z,30.70
2019-05-29T14:11:09.695Z,31.30
2019-05-29T14:13:46.255Z,31.00
2019-05-29T14:16:18.650Z,31.20
2019-05-29T14:18:47.924Z,32.50
2019-05-29T14:21:41.788Z,31.60
2019-05-29T14:24:26.871Z,30.40
2019-05-29T14:26:43.502Z,31.50
2019-05-29T14:29:21.424Z,31.50
2019-05-29T14:31:51.922Z,31.90
2019-05-29T14:34:21.104Z,32.10
2019-05-29T14:39:47.893Z,32.20
2019-05-29T14:42:17.449Z,32.80
2019-05-29T14:44:51.653Z,33.70
2019-05-29T14:47:24.576Z,36.40
2019-05-29T14:49:53.867Z,32.80
2019-05-29T14:52:23.228Z,34.10
2019-05-29T14:54:53.616Z,32.00
2019-05-29T14:57:26.164Z,34.50
2019-05-29T14:59:59.780Z,34.70
2019-05-29T15:02:29.756Z,34.30
2019-05-29T15:04:58.772Z,32.00
2019-05-29T15:07:31.906Z,32.50
2019-05-29T15:10:27.239Z,31.60
2019-05-29T15:12:52.956Z,29.90
2019-05-29T15:15:27.458Z,30.40
2019-05-29T15:17:57.408Z,31.20
2019-05-29T15:20:27.158Z,32.20
2019-05-29T15:26:00.396Z,32.70
2019-05-29T15:28:29.602Z,33.80
2019-05-29T15:30:59.537Z,34.30
2019-05-29T15:33:29.334Z,36.40
2019-05-29T15:35:58.619Z,36.20
2019-05-29T15:38:28.476Z,35.40
2019-05-29T15:40:58.461Z,38.40
2019-05-29T15:43:28.748Z,35.20
2019-05-29T15:46:04.586Z,33.10
2019-05-29T15:48:34.472Z,33.50
2019-05-29T15:51:03.372Z,30.60
2019-05-29T15:53:39.917Z,31.10
2019-05-29T15:56:21.555Z,29.20
2019-05-29T15:58:40.166Z,29.50
2019-05-29T16:01:13.818Z,30.70
2019-05-29T16:03:43.497Z,34.20
2019-05-29T16:06:13.804Z,33.20
2019-05-29T16:08:50.401Z,34.80
2019-05-29T16:11:25.123Z,35.90
2019-05-29T16:13:52.362Z,34.60
2019-05-29T16:16:29.654Z,36.70
2019-05-29T16:19:00.557Z,34.50
2019-05-29T16:21:31.711Z,37.10
2019-05-29T16:24:10.955Z,37.60
2019-05-29T16:26:45.741Z,36.50
2019-05-29T16:32:11.633Z,32.30
2019-05-29T16:34:40.910Z,33.70
2019-05-29T16:37:11.109Z,32.00
2019-05-29T16:39:41.020Z,31.40
2019-05-29T16:42:10.224Z,34.30
2019-05-29T16:44:39.330Z,32.60
2019-05-29T16:47:16.526Z,31.40
2019-05-29T16:49:44.959Z,31.30
2019-05-29T16:52:14.925Z,30.50
2019-05-29T16:54:44.052Z,32.10
2019-05-29T16:57:14.994Z,32.20
2019-05-29T16:59:44.167Z,32.80
2019-05-29T17:02:13.720Z,32.80
2019-05-29T17:04:42.798Z,31.40
2019-05-29T17:07:11.811Z,30.60
2019-05-29T17:09:40.787Z,31.00
2019-05-29T17:12:09.709Z,30.60
2019-05-29T17:14:38.597Z,29.50
2019-05-29T17:17:07.568Z,32.20
2019-05-29T17:19:36.946Z,30.20
2019-05-29T17:22:06.010Z,31.10
2019-05-29T17:24:35.234Z,31.30
2019-05-29T17:27:04.304Z,31.30
2019-05-29T17:29:33.324Z,30.60
2019-05-29T17:32:02.435Z,31.40
2019-05-29T17:34:31.392Z,31.30
2019-05-29T17:37:00.485Z,31.70
2019-05-29T17:39:29.594Z,32.10
2019-05-29T17:41:58.588Z,33.40
2019-05-29T17:44:28.678Z,32.70
2019-05-29T17:46:57.936Z,34.60
2019-05-29T17:49:34.131Z,34.60
2019-05-29T17:51:57.598Z,35.90
2019-05-29T17:54:26.860Z,37.00
2019-05-29T17:56:56.032Z,36.50
2019-05-29T17:59:26.875Z,35.90
2019-05-29T18:01:56.222Z,37.50
2019-05-29T18:04:26.640Z,37.70
2019-05-29T18:06:56.639Z,37.30
2019-05-29T18:09:27.980Z,37.90
2019-05-29T18:11:59.830Z,37.60
2019-05-29T18:14:30.260Z,37.50
2019-05-29T18:17:01.651Z,36.60
2019-05-29T18:19:35.492Z,38.10
2019-05-29T18:22:05.119Z,39.40
2019-05-29T18:24:34.412Z,37.50
2019-05-29T18:27:04.045Z,39.10
2019-05-29T18:29:33.763Z,38.20
2019-05-29T18:32:02.993Z,38.50
2019-05-29T18:34:32.104Z,40.50
2019-05-29T18:37:01.151Z,39.40
2019-05-29T18:39:30.371Z,40.10
2019-05-29T18:41:59.874Z,39.80
2019-05-29T18:44:29.074Z,41.40
2019-05-29T18:46:57.956Z,39.60
2019-05-29T18:49:28.541Z,39.90
2019-05-29T18:52:00.266Z,40.20
2019-05-29T18:54:29.894Z,40.70
2019-05-29T18:57:14.541Z,40.20
2019-05-29T18:59:29.783Z,39.50
2019-05-29T19:01:58.929Z,39.70
2019-05-29T19:04:29.956Z,39.60
2019-05-29T19:06:59.313Z,40.90
2019-05-29T19:09:29.760Z,41.70
2019-05-29T19:11:59.162Z,41.30
2019-05-29T19:14:28.573Z,42.20
2019-05-29T19:16:57.507Z,43.50
2019-05-29T19:19:32.923Z,44.40
2019-05-29T19:22:02.179Z,43.20
2019-05-29T19:24:31.248Z,43.00
2019-05-29T19:27:00.555Z,43.90
2019-05-29T19:29:31.214Z,43.30
2019-05-29T19:32:01.136Z,43.40
2019-05-29T19:34:31.479Z,45.50
2019-05-29T19:37:02.628Z,45.10
2019-05-29T19:39:34.145Z,48.50
2019-05-29T19:42:04.760Z,48.30
2019-05-29T19:44:34.540Z,50.30
2019-05-29T19:47:07.439Z,51.30
2019-05-29T19:49:39.248Z,52.10
2019-05-29T19:52:09.288Z,52.40
2019-05-29T19:54:38.891Z,53.40
2019-05-29T19:57:09.268Z,53.90
2019-05-29T19:59:40.662Z,54.70
2019-05-29T20:07:20.189Z,57.00
2019-05-29T20:09:49.714Z,57.60
2019-05-29T20:12:19.300Z,58.50
2019-05-29T20:14:55.814Z,58.50
2019-05-29T20:17:27.927Z,59.70
2019-05-29T20:19:58.453Z,60.10
2019-05-29T20:22:28.586Z,60.40
2019-05-29T20:24:59.719Z,60.20
2019-05-29T20:27:30.091Z,60.70
2019-05-29T20:30:00.437Z,61.30
2019-05-29T20:32:30.517Z,61.30
2019-05-29T20:34:59.870Z,61.80
2019-05-29T20:37:29.975Z,62.90
2019-05-29T20:39:59.399Z,63.50
2019-05-29T20:42:28.335Z,64.00
2019-05-29T20:44:57.418Z,63.60
2019-05-29T20:47:26.440Z,64.60
2019-05-29T20:49:55.408Z,64.20
2019-05-29T20:52:24.612Z,65.20
2019-05-29T20:54:57.693Z,65.80
2019-05-29T20:57:24.510Z,65.80
2019-05-29T20:59:53.804Z,65.80
2019-05-29T21:02:22.861Z,66.00
2019-05-29T21:04:54.131Z,65.00
2019-05-29T21:07:23.351Z,65.50
2019-05-29T21:09:52.593Z,67.40
2019-05-29T21:12:21.562Z,67.40
2019-05-29T21:14:50.649Z,68.10
2019-05-29T21:17:19.778Z,68.10
2019-05-29T21:19:48.630Z,69.30
2019-05-29T21:22:17.614Z,70.00
2019-05-29T21:24:58.173Z,71.50
2019-05-29T21:27:17.115Z,71.20
2019-05-29T21:29:46.198Z,71.20
2019-05-29T21:32:15.319Z,71.20
2019-05-29T21:34:44.578Z,71.40
2019-05-29T21:37:16.345Z,70.90
2019-05-29T21:39:46.521Z,70.70
2019-05-29T21:42:15.682Z,70.60
2019-05-29T21:44:44.880Z,70.40
2019-05-29T21:47:14.091Z,70.80
2019-05-29T21:49:43.294Z,71.40
2019-05-29T21:52:13.261Z,70.80
2019-05-29T21:54:43.557Z,71.40
2019-05-29T21:57:12.761Z,72.50
2019-05-29T21:59:42.074Z,72.40
2019-05-29T22:02:11.803Z,73.00
2019-05-29T22:04:42.280Z,73.20
2019-05-29T22:07:11.362Z,73.40
2019-05-29T22:09:40.305Z,74.00
2019-05-29T22:12:09.705Z,74.20
2019-05-29T22:14:46.444Z,74.40
2019-05-29T22:17:15.655Z,75.00
2019-05-29T22:19:44.875Z,74.80
2019-05-29T22:22:13.759Z,75.60
2019-05-29T22:24:42.964Z,74.20
2019-05-29T22:27:11.987Z,74.70
2019-05-29T22:29:41.134Z,74.50
2019-05-29T22:32:10.150Z,74.40
2019-05-29T22:34:39.421Z,74.90
2019-05-29T22:37:08.459Z,74.70
2019-05-29T22:39:37.530Z,75.60
2019-05-29T22:42:08.281Z,76.10
2019-05-29T22:44:37.265Z,77.40
2019-05-29T22:47:06.163Z,76.80
2019-05-29T22:49:35.112Z,76.40
2019-05-29T22:52:04.115Z,76.90
2019-05-29T22:54:33.024Z,77.00
2019-05-29T22:57:02.216Z,77.20
2019-05-29T22:59:32.361Z,77.20
2019-05-29T23:02:02.590Z,78.00
2019-05-29T23:04:31.684Z,77.50
2019-05-29T23:07:00.693Z,78.00
2019-05-29T23:09:34.066Z,77.50
2019-05-29T23:12:03.015Z,77.60
2019-05-29T23:14:32.016Z,77.90
2019-05-29T23:17:01.177Z,78.50
2019-05-29T23:19:30.130Z,78.30
2019-05-29T23:21:59.202Z,79.00
2019-05-29T23:24:28.157Z,79.70
2019-05-29T23:26:57.215Z,79.70
2019-05-29T23:29:26.179Z,80.20
2019-05-29T23:31:55.176Z,80.10
2019-05-29T23:34:29.859Z,79.80
2019-05-29T23:36:59.271Z,79.20
2019-05-29T23:39:28.227Z,78.80
2019-05-29T23:41:57.312Z,78.60
2019-05-29T23:44:26.340Z,78.50
2019-05-29T23:46:55.413Z,78.20
2019-05-29T23:49:24.491Z,78.50
2019-05-29T23:51:53.652Z,78.20
2019-05-29T23:54:22.955Z,78.00
2019-05-29T23:56:51.901Z,76.70
2019-05-29T23:59:21.002Z,76.00
